createdAt,value
2019-02-17T08:28:16.655Z,11064.00
2019-02-17T08:29:16.641Z,7464.00
2019-02-17T08:30:16.646Z,7256.00
2019-02-17T08:31:16.653Z,7368.00
2019-02-17T08:32:16.670Z,7704.00
2019-02-17T08:33:16.681Z,9120.00
2019-02-17T08:34:16.864Z,13348.00
2019-02-17T08:35:16.703Z,18624.00
2019-02-17T08:36:16.691Z,21856.00
2019-02-17T08:37:16.703Z,23168.00
2019-02-17T08:38:16.708Z,24768.00
2019-02-17T08:39:16.738Z,29824.00
2019-02-17T08:40:16.738Z,31904.00
2019-02-17T08:41:16.740Z,29024.00
2019-02-17T08:42:16.793Z,28480.00
2019-02-17T08:43:16.746Z,30176.00
2019-02-17T08:44:16.752Z,30816.00
2019-02-17T08:45:16.788Z,32352.00
2019-02-17T08:46:16.765Z,31264.00
2019-02-17T08:47:16.785Z,34144.00
2019-02-17T08:48:16.795Z,36320.00
2019-02-17T08:49:16.806Z,32992.00
2019-02-17T08:50:16.815Z,31872.00
2019-02-17T08:51:16.832Z,32832.00
2019-02-17T08:52:16.843Z,35104.00
2019-02-17T08:53:16.959Z,36448.00
2019-02-17T08:54:16.868Z,35136.00
2019-02-17T08:55:16.873Z,34496.00
2019-02-17T08:56:18.701Z,34816.00
2019-02-17T08:57:16.892Z,36864.00
2019-02-17T08:58:16.914Z,35136.00
2019-02-17T08:59:16.914Z,36352.00
2019-02-17T09:00:16.947Z,33536.00
2019-02-17T09:01:16.948Z,32768.00
2019-02-17T09:02:16.950Z,28096.00
2019-02-17T09:03:16.965Z,29312.00
2019-02-17T09:04:16.975Z,30080.00
2019-02-17T09:05:16.987Z,29760.00
2019-02-17T09:06:16.998Z,41056.00
2019-02-17T09:07:17.011Z,43136.00
2019-02-17T09:08:17.023Z,43424.00
2019-02-17T09:09:17.057Z,43904.00
2019-02-17T09:10:17.045Z,43840.00
2019-02-17T09:11:17.062Z,46176.00
2019-02-17T09:12:17.081Z,47680.00
2019-02-17T09:13:18.571Z,47232.00
2019-02-17T09:14:17.100Z,46080.00
2019-02-17T09:15:17.115Z,44224.00
2019-02-17T09:16:17.134Z,45024.00
2019-02-17T09:17:17.147Z,48064.00
2019-02-17T09:18:17.152Z,47264.00
2019-02-17T09:19:17.177Z,44800.00
2019-02-17T09:20:17.182Z,45760.00
2019-02-17T09:21:17.201Z,47456.00
2019-02-17T09:22:17.215Z,46656.00
2019-02-17T09:23:17.226Z,46624.00
2019-02-17T09:24:17.247Z,42240.00
2019-02-17T09:25:17.254Z,41120.00
2019-02-17T09:26:17.267Z,42112.00
2019-02-17T09:27:17.285Z,45216.00
2019-02-17T09:28:17.298Z,49120.00
2019-02-17T09:29:17.313Z,49504.00
2019-02-17T09:30:17.330Z,49440.00
2019-02-17T09:31:17.346Z,50944.00
2019-02-17T09:32:17.352Z,48832.00
2019-02-17T09:33:17.376Z,45696.00
2019-02-17T09:34:17.384Z,43328.00
2019-02-17T09:35:17.399Z,49344.00
2019-02-17T09:36:17.411Z,49088.00
2019-02-17T09:37:17.426Z,45344.00
2019-02-17T09:38:17.448Z,45824.00
2019-02-17T09:39:17.462Z,46816.00
2019-02-17T09:40:17.471Z,41248.00
2019-02-17T09:41:17.490Z,41856.00
2019-02-17T09:42:17.516Z,40096.00
2019-02-17T09:43:17.521Z,43776.00
2019-02-17T09:44:17.533Z,43968.00
2019-02-17T09:45:17.554Z,41376.00
2019-02-17T09:46:17.558Z,36544.00
2019-02-17T09:47:17.589Z,40128.00
2019-02-17T09:48:17.590Z,41120.00
2019-02-17T09:49:17.617Z,40416.00
2019-02-17T09:50:17.635Z,41824.00
2019-02-17T09:51:17.648Z,43200.00
2019-02-17T09:52:17.656Z,41760.00
2019-02-17T09:53:17.670Z,39776.00
2019-02-17T09:54:17.747Z,44480.00
2019-02-17T09:55:17.701Z,43328.00
2019-02-17T09:56:17.714Z,44864.00
2019-02-17T09:57:17.727Z,43872.00
2019-02-17T09:58:17.747Z,40384.00
2019-02-17T09:59:17.764Z,41408.00
2019-02-17T10:00:17.769Z,39008.00
2019-02-17T10:01:17.792Z,40768.00
2019-02-17T10:02:26.320Z,38560.00
2019-02-17T10:03:17.823Z,41120.00
2019-02-17T10:04:17.836Z,43360.00
2019-02-17T10:05:17.848Z,45472.00
2019-02-17T10:06:17.861Z,45888.00
2019-02-17T10:07:17.880Z,47840.00
2019-02-17T10:08:17.896Z,49312.00
2019-02-17T10:09:17.898Z,49216.00
2019-02-17T10:10:17.924Z,51392.00
2019-02-17T10:11:17.939Z,54080.00
2019-02-17T10:12:17.956Z,54368.00
2019-02-17T10:13:17.972Z,55904.00
2019-02-17T10:14:17.995Z,58912.00
2019-02-17T10:15:18.007Z,59264.00
2019-02-17T10:16:18.029Z,57888.00
2019-02-17T10:17:18.033Z,60672.00
2019-02-17T10:18:18.060Z,65664.00
2019-02-17T10:19:18.064Z,57824.00
2019-02-17T10:20:18.090Z,48512.00
2019-02-17T10:21:18.098Z,58784.00
2019-02-17T10:22:18.118Z,74560.00
2019-02-17T10:23:18.141Z,66752.00
2019-02-17T10:24:18.153Z,60288.00
2019-02-17T10:25:18.171Z,64576.00
2019-02-17T10:26:18.179Z,63712.00
2019-02-17T10:27:18.201Z,61344.00
2019-02-17T10:28:18.213Z,61376.00
2019-02-17T10:29:18.230Z,62112.00
2019-02-17T10:30:18.253Z,60832.00
2019-02-17T10:31:18.262Z,62528.00
2019-02-17T10:32:18.281Z,64832.00
2019-02-17T10:33:18.289Z,71552.00
2019-02-17T10:34:18.320Z,74080.00
2019-02-17T10:35:18.330Z,66912.00
2019-02-17T10:36:18.349Z,60256.00
2019-02-17T10:37:18.372Z,58720.00
2019-02-17T10:38:18.439Z,63648.00
2019-02-17T10:39:18.412Z,72096.00
2019-02-17T10:40:18.418Z,75840.00
2019-02-17T10:41:18.435Z,72992.00
2019-02-17T10:42:18.458Z,66208.00
2019-02-17T10:43:18.472Z,60064.00
2019-02-17T10:44:18.489Z,60096.00
2019-02-17T10:45:18.510Z,64352.00
2019-02-17T10:46:18.534Z,68224.00
2019-02-17T10:47:18.538Z,67424.00
2019-02-17T10:48:18.569Z,64512.00
2019-02-17T10:49:19.388Z,62048.00
2019-02-17T10:50:18.589Z,59488.00
2019-02-17T10:51:18.621Z,57312.00
2019-02-17T10:52:18.632Z,56576.00
2019-02-17T10:53:18.657Z,55488.00
2019-02-17T10:54:18.669Z,56096.00
2019-02-17T10:55:18.683Z,57024.00
2019-02-17T10:56:18.693Z,56576.00
2019-02-17T10:57:18.717Z,57568.00
2019-02-17T10:58:18.750Z,58656.00
2019-02-17T10:59:18.757Z,58880.00
2019-02-17T11:00:18.773Z,60192.00
2019-02-17T11:01:18.791Z,57728.00
2019-02-17T11:02:18.803Z,56352.00
2019-02-17T11:03:18.826Z,59488.00
2019-02-17T11:04:18.843Z,61632.00
2019-02-17T11:05:18.868Z,64864.00
2019-02-17T11:06:18.890Z,67744.00
2019-02-17T11:07:18.893Z,62784.00
2019-02-17T11:08:18.916Z,59360.00
2019-02-17T11:09:18.929Z,61312.00
2019-02-17T11:10:18.952Z,64800.00
2019-02-17T11:11:18.974Z,65696.00
2019-02-17T11:12:18.995Z,63008.00
2019-02-17T11:13:19.014Z,61632.00
2019-02-17T11:14:19.027Z,62592.00
2019-02-17T11:15:19.042Z,59200.00
2019-02-17T11:16:19.064Z,59008.00
2019-02-17T11:17:19.089Z,62048.00
2019-02-17T11:18:19.096Z,65152.00
2019-02-17T11:19:19.128Z,67584.00
2019-02-17T11:20:19.129Z,67456.00
2019-02-17T11:21:19.152Z,66816.00
2019-02-17T11:22:23.147Z,63904.00
2019-02-17T11:23:19.185Z,64928.00
2019-02-17T11:24:19.210Z,65504.00
2019-02-17T11:25:19.224Z,67104.00
2019-02-17T11:26:19.323Z,64864.00
2019-02-17T11:27:19.256Z,63808.00
2019-02-17T11:28:19.280Z,63776.00
2019-02-17T11:29:19.299Z,63840.00
2019-02-17T11:30:19.344Z,64832.00
2019-02-17T11:31:19.331Z,63744.00
2019-02-17T11:32:19.347Z,61824.00
2019-02-17T11:33:19.378Z,61440.00
2019-02-17T11:34:19.382Z,62176.00
2019-02-17T11:35:19.410Z,61024.00
2019-02-17T11:36:19.419Z,63552.00
2019-02-17T11:37:19.440Z,62976.00
2019-02-17T11:38:19.456Z,60192.00
2019-02-17T11:39:19.487Z,60800.00
2019-02-17T11:40:19.493Z,63168.00
2019-02-17T11:41:19.509Z,64736.00
2019-02-17T11:42:19.521Z,65088.00
2019-02-17T11:43:19.545Z,63744.00
2019-02-17T11:44:19.563Z,61824.00
2019-02-17T11:45:19.579Z,60928.00
2019-02-17T11:46:19.617Z,61568.00
2019-02-17T11:47:19.619Z,65472.00
2019-02-17T11:48:19.635Z,66816.00
2019-02-17T11:49:19.652Z,65696.00
2019-02-17T11:50:19.673Z,67232.00
2019-02-17T11:51:19.686Z,59008.00
2019-02-17T11:52:19.705Z,56096.00
2019-02-17T11:53:19.724Z,61312.00
2019-02-17T11:54:19.743Z,66272.00
2019-02-17T11:55:19.760Z,66336.00
2019-02-17T11:56:19.780Z,62432.00
2019-02-17T11:57:19.798Z,59264.00
2019-02-17T11:58:19.816Z,49984.00
2019-02-17T11:59:19.835Z,52352.00
2019-02-17T12:00:19.859Z,61408.00
2019-02-17T12:01:19.865Z,67200.00
2019-02-17T12:02:24.952Z,66752.00
2019-02-17T12:03:19.904Z,62624.00
2019-02-17T12:04:19.923Z,62848.00
2019-02-17T12:05:19.939Z,65024.00
2019-02-17T12:06:19.960Z,69440.00
2019-02-17T12:07:19.985Z,69152.00
2019-02-17T12:08:19.995Z,66368.00
2019-02-17T12:09:20.021Z,63456.00
2019-02-17T12:10:20.035Z,66208.00
2019-02-17T12:11:20.048Z,67648.00
2019-02-17T12:12:20.068Z,65152.00
2019-02-17T12:13:20.085Z,64224.00
2019-02-17T12:14:20.108Z,62432.00
2019-02-17T12:15:20.116Z,61984.00
2019-02-17T12:16:20.141Z,63424.00
2019-02-17T12:17:20.159Z,64448.00
2019-02-17T12:18:20.181Z,63584.00
2019-02-17T12:19:20.197Z,62752.00
2019-02-17T12:20:20.213Z,60512.00
2019-02-17T12:21:20.233Z,64192.00
2019-02-17T12:22:20.246Z,64928.00
2019-02-17T12:23:20.268Z,64832.00
2019-02-17T12:24:20.287Z,62400.00
2019-02-17T12:25:20.308Z,61312.00
2019-02-17T12:26:20.343Z,59680.00
2019-02-17T12:27:20.330Z,58368.00
2019-02-17T12:28:20.366Z,59232.00
2019-02-17T12:29:20.381Z,63392.00
2019-02-17T12:30:20.394Z,63232.00
2019-02-17T12:31:20.415Z,59520.00
2019-02-17T12:32:20.424Z,59200.00
2019-02-17T12:33:21.836Z,61216.00
2019-02-17T12:34:20.475Z,62784.00
2019-02-17T12:35:20.488Z,61824.00
2019-02-17T12:36:20.514Z,58976.00
2019-02-17T12:37:20.526Z,59136.00
2019-02-17T12:38:20.549Z,59584.00
2019-02-17T12:39:20.562Z,61184.00
2019-02-17T12:40:20.726Z,59840.00
2019-02-17T12:41:20.611Z,56768.00
2019-02-17T12:42:20.619Z,56960.00
2019-02-17T12:43:20.726Z,57152.00
2019-02-17T12:44:20.664Z,58176.00
2019-02-17T12:45:20.677Z,59872.00
2019-02-17T12:46:20.702Z,63136.00
2019-02-17T12:47:20.715Z,64032.00
2019-02-17T12:48:20.734Z,63232.00
2019-02-17T12:49:20.753Z,61408.00
2019-02-17T12:50:20.820Z,61504.00
2019-02-17T12:51:20.792Z,60800.00
2019-02-17T12:52:20.849Z,59808.00
2019-02-17T12:53:20.820Z,60320.00
2019-02-17T12:54:28.896Z,58720.00
2019-02-17T12:55:20.858Z,57984.00
2019-02-17T12:56:20.879Z,53984.00
2019-02-17T12:57:20.906Z,55840.00
2019-02-17T12:58:29.570Z,57664.00
2019-02-17T12:59:20.932Z,57312.00
2019-02-17T13:00:20.958Z,56736.00
2019-02-17T13:01:20.971Z,53472.00
2019-02-17T13:02:20.996Z,50464.00
2019-02-17T13:03:28.309Z,48224.00
2019-02-17T13:04:21.020Z,48640.00
2019-02-17T13:05:21.043Z,51296.00
2019-02-17T13:06:21.083Z,48576.00
2019-02-17T13:07:21.082Z,47872.00
2019-02-17T13:08:21.115Z,47584.00
2019-02-17T13:09:21.108Z,48352.00
2019-02-17T13:10:21.189Z,50304.00
2019-02-17T13:11:21.159Z,48448.00
2019-02-17T13:12:21.181Z,46752.00
2019-02-17T13:13:21.188Z,44736.00
2019-02-17T13:14:21.208Z,45312.00
2019-02-17T13:15:21.228Z,45792.00
2019-02-17T13:16:21.244Z,45856.00
2019-02-17T13:17:21.263Z,44832.00
2019-02-17T13:18:21.277Z,44672.00
2019-02-17T13:19:21.322Z,44288.00
2019-02-17T13:20:21.322Z,43008.00
2019-02-17T13:21:21.330Z,42880.00
2019-02-17T13:22:21.355Z,41536.00
2019-02-17T13:23:21.373Z,41312.00
2019-02-17T13:24:21.401Z,40128.00
2019-02-17T13:25:21.417Z,40160.00
2019-02-17T13:26:21.441Z,39680.00
2019-02-17T13:27:21.458Z,40480.00
2019-02-17T13:28:21.460Z,39072.00
2019-02-17T13:29:21.484Z,39232.00
2019-02-17T13:30:21.494Z,39392.00
2019-02-17T13:31:21.519Z,38784.00
2019-02-17T13:32:21.525Z,38144.00
2019-02-17T13:33:21.555Z,38816.00
2019-02-17T13:34:21.572Z,39616.00
2019-02-17T13:36:21.615Z,37632.00
2019-02-17T13:37:21.622Z,37056.00
2019-02-17T13:38:21.636Z,36192.00
2019-02-17T13:39:21.674Z,36480.00
2019-02-17T13:40:21.684Z,36000.00
2019-02-17T13:41:21.694Z,34688.00
2019-02-17T13:42:21.707Z,32288.00
2019-02-17T13:43:21.752Z,33312.00
2019-02-17T13:44:21.747Z,36064.00
2019-02-17T13:45:21.767Z,39392.00
2019-02-17T13:46:21.796Z,37696.00
2019-02-17T13:47:21.799Z,36480.00
2019-02-17T13:48:21.815Z,37952.00
2019-02-17T13:49:21.843Z,40448.00
2019-02-17T13:50:22.191Z,40576.00
2019-02-17T13:51:21.878Z,36064.00
2019-02-17T13:52:21.882Z,35744.00
2019-02-17T13:53:21.908Z,37632.00
2019-02-17T13:54:21.916Z,38208.00
2019-02-17T13:55:21.935Z,37216.00
2019-02-17T13:56:21.968Z,36288.00
2019-02-17T13:57:21.974Z,35360.00
2019-02-17T13:58:21.984Z,34656.00
2019-02-17T13:59:22.005Z,35072.00
2019-02-17T14:00:22.026Z,35008.00
2019-02-17T14:01:22.038Z,33920.00
2019-02-17T14:02:22.062Z,32576.00
2019-02-17T14:03:22.079Z,33664.00
2019-02-17T14:04:22.093Z,33152.00
2019-02-17T14:05:22.121Z,30368.00
2019-02-17T14:06:22.129Z,31776.00
2019-02-17T14:07:22.148Z,34432.00
2019-02-17T14:08:22.175Z,32928.00
2019-02-17T14:09:22.177Z,30304.00
2019-02-17T14:10:22.190Z,31104.00
2019-02-17T14:11:22.205Z,30624.00
2019-02-17T14:12:22.229Z,27200.00
2019-02-17T14:13:22.253Z,30432.00
2019-02-17T14:14:22.261Z,31680.00
2019-02-17T14:15:22.276Z,28640.00
2019-02-17T14:16:22.297Z,29984.00
2019-02-17T14:17:22.321Z,31296.00
2019-02-17T14:18:22.340Z,31296.00
2019-02-17T14:19:22.343Z,26592.00
2019-02-17T14:20:22.389Z,29120.00
2019-02-17T14:21:22.385Z,22592.00
2019-02-17T14:22:22.390Z,25536.00
2019-02-17T14:23:22.423Z,24352.00
2019-02-17T14:24:22.423Z,24448.00
2019-02-17T14:25:22.464Z,24896.00
2019-02-17T14:26:22.469Z,25216.00
2019-02-17T14:27:22.480Z,24320.00
2019-02-17T14:28:22.505Z,24928.00
2019-02-17T14:29:22.516Z,25376.00
2019-02-17T14:30:22.530Z,24928.00
2019-02-17T14:31:22.556Z,24320.00
2019-02-17T14:32:22.560Z,24672.00
2019-02-17T14:33:22.579Z,24224.00
2019-02-17T14:34:22.606Z,24000.00
2019-02-17T14:35:22.612Z,23488.00
2019-02-17T14:36:22.627Z,23200.00
2019-02-17T14:37:22.653Z,24160.00
2019-02-17T14:38:22.658Z,25088.00
2019-02-17T14:39:22.675Z,25600.00
2019-02-17T14:40:22.690Z,26016.00
2019-02-17T14:41:22.723Z,26688.00
2019-02-17T14:42:22.723Z,25728.00
2019-02-17T14:43:22.744Z,23712.00
2019-02-17T14:44:22.749Z,23168.00
2019-02-17T14:45:22.768Z,21856.00
2019-02-17T14:46:22.802Z,22368.00
2019-02-17T14:47:22.813Z,21728.00
2019-02-17T14:48:22.830Z,24736.00
2019-02-17T14:49:22.838Z,25952.00
2019-02-17T14:50:22.877Z,24672.00
2019-02-17T14:51:22.869Z,24672.00
2019-02-17T14:52:22.896Z,23136.00
2019-02-17T14:53:22.898Z,23136.00
2019-02-17T14:54:22.922Z,23520.00
2019-02-17T14:55:22.939Z,23200.00
2019-02-17T14:57:22.964Z,25920.00
2019-02-17T14:58:22.980Z,25024.00
2019-02-17T14:59:23.797Z,25184.00
2019-02-17T15:00:23.021Z,24448.00
2019-02-17T15:01:23.029Z,24960.00
2019-02-17T15:02:23.045Z,24672.00
2019-02-17T15:03:23.065Z,23680.00
2019-02-17T15:04:23.078Z,23904.00
2019-02-17T15:05:23.102Z,24128.00
2019-02-17T15:06:23.107Z,22624.00
2019-02-17T15:07:23.121Z,21312.00
2019-02-17T15:08:23.140Z,19936.00
2019-02-17T15:09:23.151Z,19168.00
2019-02-17T15:10:23.170Z,20672.00
2019-02-17T15:11:23.186Z,20480.00
2019-02-17T15:12:23.201Z,19552.00
2019-02-17T15:13:24.740Z,19200.00
2019-02-17T15:14:23.233Z,19040.00
2019-02-17T15:15:23.246Z,18624.00
2019-02-17T15:16:23.279Z,17728.00
2019-02-17T15:17:23.279Z,17184.00
2019-02-17T15:18:23.295Z,17248.00
2019-02-17T15:19:23.300Z,16800.00
2019-02-17T15:20:23.323Z,15776.00
2019-02-17T15:21:23.342Z,15232.00
2019-02-17T15:22:23.355Z,14720.00
2019-02-17T15:23:23.374Z,15072.00
2019-02-17T15:24:23.392Z,15008.00
2019-02-17T15:25:23.401Z,15488.00
2019-02-17T15:26:23.417Z,15584.00
2019-02-17T15:27:23.457Z,14944.00
2019-02-17T15:28:23.449Z,13856.00
2019-02-17T15:29:23.467Z,13184.00
2019-02-17T15:30:23.476Z,11996.00
2019-02-17T15:31:23.491Z,11180.00
2019-02-17T15:32:23.514Z,10828.00
2019-02-17T15:33:23.530Z,10932.00
2019-02-17T15:34:23.527Z,10984.00
2019-02-17T15:35:24.394Z,11316.00
2019-02-17T15:36:23.580Z,11428.00
2019-02-17T15:37:23.582Z,11368.00
2019-02-17T15:38:23.613Z,11608.00
2019-02-17T15:39:23.616Z,11840.00
2019-02-17T15:40:23.661Z,11608.00
2019-02-17T15:41:23.651Z,10940.00
2019-02-17T15:42:23.657Z,11052.00
2019-02-17T15:43:23.688Z,11324.00
2019-02-17T15:44:23.682Z,10628.00
2019-02-17T15:45:23.700Z,9604.00
2019-02-17T15:46:23.719Z,9092.00
2019-02-17T15:47:23.738Z,9212.00
2019-02-17T15:48:23.755Z,8920.00
2019-02-17T15:49:23.775Z,8856.00
2019-02-17T15:50:23.778Z,8408.00
2019-02-17T15:51:23.797Z,8028.00
2019-02-17T15:52:23.811Z,7828.00
2019-02-17T15:53:23.823Z,7452.00
2019-02-17T15:54:23.833Z,6808.00
2019-02-17T15:55:23.865Z,5848.00
2019-02-17T15:56:23.885Z,5084.00
2019-02-17T15:57:23.880Z,4824.00
2019-02-17T15:58:23.901Z,4700.00
2019-02-17T15:59:23.910Z,4408.00
2019-02-17T16:00:23.945Z,4068.00
2019-02-17T16:01:23.935Z,3748.00
2019-02-17T16:02:23.952Z,4036.00
2019-02-17T16:03:23.971Z,4340.00
2019-02-17T16:04:28.491Z,4264.00
2019-02-17T16:05:24.005Z,4000.00
2019-02-17T16:06:24.013Z,3908.00
2019-02-17T16:07:24.030Z,3960.00
2019-02-17T16:08:24.051Z,4116.00
2019-02-17T16:09:24.042Z,4096.00
2019-02-17T16:10:24.073Z,3852.00
2019-02-17T16:11:24.083Z,3612.00
2019-02-17T16:12:24.090Z,3360.00
2019-02-17T16:13:24.108Z,3176.00
2019-02-17T16:14:24.116Z,3012.00
2019-02-17T16:15:24.123Z,2700.00
2019-02-17T16:16:24.142Z,2332.00
2019-02-17T16:17:24.167Z,2180.00
2019-02-17T16:18:24.173Z,2192.00
2019-02-17T16:19:24.209Z,2212.00
2019-02-17T16:20:24.214Z,2280.00
2019-02-17T16:21:24.218Z,2256.00
2019-02-17T16:22:24.237Z,1908.00
2019-02-17T16:23:24.249Z,1592.00
2019-02-17T16:24:24.250Z,1324.00
2019-02-17T16:25:24.270Z,1136.00
2019-02-17T16:26:24.287Z,1040.00
2019-02-17T16:27:24.291Z,988.00
2019-02-17T16:28:24.318Z,900.00
2019-02-17T16:29:24.330Z,820.00
2019-02-17T16:30:24.332Z,764.00
2019-02-17T16:31:24.342Z,724.00
2019-02-17T16:32:24.359Z,696.00
2019-02-17T16:33:24.368Z,628.00
2019-02-17T16:34:24.375Z,572.00
2019-02-17T16:35:24.398Z,524.00
2019-02-17T16:36:24.417Z,476.00
2019-02-17T16:37:24.758Z,432.00
2019-02-17T16:38:24.439Z,392.00
2019-02-17T16:39:24.452Z,356.00
2019-02-17T16:40:24.461Z,320.00
2019-02-17T16:41:24.496Z,292.00
2019-02-17T16:42:24.491Z,260.00
2019-02-17T16:43:24.496Z,236.00
2019-02-17T16:44:24.512Z,212.00
2019-02-17T16:45:24.516Z,188.00
2019-02-17T16:46:24.526Z,168.00
2019-02-17T16:47:24.537Z,148.00
2019-02-17T16:48:24.559Z,136.00
2019-02-17T16:49:24.737Z,120.00
2019-02-17T16:50:24.594Z,108.00
2019-02-17T16:51:24.572Z,96.00
2019-02-17T16:52:24.588Z,88.00
2019-02-17T16:53:24.626Z,80.00
2019-02-17T16:54:24.616Z,68.00
2019-02-17T16:55:24.622Z,64.00
2019-02-17T16:56:24.631Z,52.00
2019-02-17T16:57:24.648Z,48.00
2019-02-17T16:58:24.650Z,44.00
2019-02-17T16:59:24.675Z,36.00
2019-02-17T17:00:24.669Z,32.00
2019-02-17T17:01:24.683Z,32.00
2019-02-17T17:02:24.721Z,24.00
2019-02-17T17:03:24.708Z,24.00
2019-02-17T17:04:24.724Z,20.00
2019-02-17T17:05:24.748Z,16.00
2019-02-17T17:06:24.748Z,16.00
2019-02-17T17:07:24.766Z,16.00
2019-02-17T17:08:24.766Z,12.00
2019-02-17T17:09:24.777Z,8.00
2019-02-17T17:10:24.787Z,8.00
2019-02-17T17:11:24.796Z,4.00
2019-02-17T17:12:25.018Z,8.00
2019-02-17T17:13:24.827Z,4.00
2019-02-17T17:14:24.825Z,4.00
2019-02-17T17:15:24.838Z,4.00
2019-02-17T17:16:24.854Z,4.00
2019-02-17T17:17:24.857Z,4.00
2019-02-17T17:18:24.930Z,4.00
2019-02-17T17:19:24.888Z,0.00
2019-02-17T17:20:24.888Z,0.00
2019-02-17T17:21:25.370Z,4.00
2019-02-17T17:22:24.909Z,4.00
2019-02-17T17:23:24.914Z,4.00
2019-02-17T17:24:24.925Z,4.00
2019-02-17T17:25:24.943Z,4.00
2019-02-17T17:26:24.949Z,4.00
2019-02-17T17:27:24.956Z,4.00
2019-02-17T17:28:25.902Z,0.00
2019-02-17T17:29:24.977Z,4.00
2019-02-17T17:30:24.980Z,4.00
2019-02-17T17:31:25.061Z,4.00
2019-02-17T17:32:25.006Z,0.00
2019-02-17T17:33:25.021Z,0.00
2019-02-17T17:34:25.026Z,4.00
2019-02-17T17:35:25.038Z,4.00
2019-02-17T17:36:25.042Z,0.00
2019-02-17T17:37:25.054Z,0.00
2019-02-17T17:38:25.053Z,0.00
2019-02-17T17:39:25.088Z,4.00
2019-02-17T17:40:25.088Z,0.00
2019-02-17T17:41:25.100Z,0.00
2019-02-17T17:42:25.114Z,0.00
2019-02-17T17:43:25.118Z,0.00
2019-02-17T17:44:25.125Z,4.00
2019-02-17T17:45:25.136Z,0.00
2019-02-17T17:46:25.132Z,4.00
2019-02-17T17:47:25.150Z,0.00
2019-02-17T17:48:25.194Z,4.00
2019-02-17T17:49:25.164Z,0.00
2019-02-17T17:50:25.177Z,0.00
2019-02-17T17:51:25.192Z,0.00
2019-02-17T17:52:25.189Z,4.00
2019-02-17T17:53:25.209Z,0.00
2019-02-17T17:54:25.220Z,0.00
2019-02-17T17:55:25.228Z,0.00
2019-02-17T17:56:25.236Z,0.00
2019-02-17T17:57:25.247Z,0.00
2019-02-17T17:58:25.263Z,0.00
2019-02-17T17:59:25.262Z,0.00
2019-02-17T18:00:25.291Z,0.00
2019-02-17T18:01:25.283Z,0.00
2019-02-17T18:02:25.292Z,0.00
2019-02-17T18:03:25.314Z,0.00
2019-02-17T18:04:25.311Z,0.00
2019-02-17T18:05:25.329Z,0.00
2019-02-17T18:06:25.326Z,0.00
2019-02-17T18:07:25.343Z,0.00
2019-02-17T18:08:25.349Z,0.00
2019-02-17T18:09:25.360Z,4.00
2019-02-17T18:10:25.364Z,4.00
2019-02-17T18:11:25.367Z,0.00
2019-02-17T18:12:25.384Z,0.00
2019-02-17T18:13:25.402Z,4.00
2019-02-17T18:14:25.405Z,0.00
2019-02-17T18:15:25.412Z,4.00
2019-02-17T18:16:25.411Z,0.00
2019-02-17T18:17:25.426Z,0.00
2019-02-17T18:18:25.482Z,0.00
2019-02-17T18:19:25.463Z,0.00
2019-02-17T18:20:25.446Z,0.00
2019-02-17T18:21:25.469Z,0.00
2019-02-17T18:22:25.489Z,0.00
2019-02-17T18:23:25.484Z,0.00
2019-02-17T18:24:26.821Z,0.00
2019-02-17T18:25:25.497Z,4.00
2019-02-17T18:26:25.507Z,0.00
2019-02-17T18:27:25.526Z,0.00
2019-02-17T18:28:25.525Z,4.00
2019-02-17T18:29:25.534Z,0.00
2019-02-17T18:30:25.538Z,4.00
2019-02-17T18:31:25.561Z,0.00
2019-02-17T18:32:25.564Z,0.00
2019-02-17T18:33:25.578Z,0.00
2019-02-17T18:34:25.574Z,4.00
2019-02-17T18:35:25.605Z,0.00
2019-02-17T18:36:25.601Z,0.00
2019-02-17T18:37:25.601Z,0.00
2019-02-17T18:38:25.612Z,0.00
2019-02-17T18:39:25.622Z,4.00
2019-02-17T18:40:25.632Z,4.00
2019-02-17T18:41:25.634Z,0.00
2019-02-17T18:42:25.644Z,0.00
2019-02-17T18:43:25.663Z,0.00
2019-02-17T18:44:25.669Z,0.00
2019-02-17T18:45:25.660Z,0.00
2019-02-17T18:46:26.436Z,4.00
2019-02-17T18:47:25.694Z,0.00
2019-02-17T18:48:25.695Z,0.00
2019-02-17T18:49:25.716Z,0.00
2019-02-17T18:50:25.722Z,0.00
2019-02-17T18:51:25.735Z,0.00
2019-02-17T18:52:25.734Z,4.00
2019-02-17T18:53:25.743Z,4.00
2019-02-17T18:54:25.748Z,0.00
2019-02-17T18:55:25.759Z,4.00
2019-02-17T18:56:25.769Z,0.00
2019-02-17T18:57:25.771Z,0.00
2019-02-17T18:58:25.780Z,0.00
2019-02-17T18:59:25.811Z,0.00
2019-02-17T19:00:25.802Z,0.00
2019-02-17T19:01:25.796Z,0.00
2019-02-17T19:02:25.815Z,0.00
2019-02-17T19:03:25.834Z,0.00
2019-02-17T19:04:25.843Z,0.00
2019-02-17T19:05:32.059Z,0.00
2019-02-17T19:06:25.849Z,0.00
2019-02-17T19:07:25.872Z,0.00
2019-02-17T19:08:25.855Z,0.00
2019-02-17T19:09:25.876Z,0.00
2019-02-17T19:10:25.886Z,4.00
2019-02-17T19:11:25.885Z,0.00
2019-02-17T19:12:25.898Z,0.00
2019-02-17T19:13:25.918Z,0.00
2019-02-17T19:14:25.919Z,0.00
2019-02-17T19:15:25.933Z,0.00
2019-02-17T19:16:25.934Z,0.00
2019-02-17T19:17:25.935Z,0.00
2019-02-17T19:18:25.948Z,0.00
2019-02-17T19:19:25.966Z,4.00
2019-02-17T19:20:25.967Z,0.00
2019-02-17T19:21:27.411Z,0.00
2019-02-17T19:22:25.976Z,0.00
2019-02-17T19:23:25.996Z,0.00
2019-02-17T19:24:25.997Z,0.00
2019-02-17T19:25:26.004Z,0.00
2019-02-17T19:26:26.015Z,0.00
2019-02-17T19:27:26.024Z,0.00
2019-02-17T19:28:26.031Z,0.00
2019-02-17T19:29:26.040Z,0.00
2019-02-17T19:30:26.061Z,0.00
2019-02-17T19:31:26.047Z,0.00
2019-02-17T19:32:26.065Z,0.00
2019-02-17T19:33:26.072Z,0.00
2019-02-17T19:34:26.092Z,0.00
2019-02-17T19:35:26.079Z,0.00
2019-02-17T19:36:26.094Z,4.00
2019-02-17T19:37:26.106Z,0.00
2019-02-17T19:38:26.114Z,0.00
2019-02-17T19:39:26.149Z,0.00
2019-02-17T19:40:26.130Z,0.00
2019-02-17T19:41:26.134Z,0.00
2019-02-17T19:42:26.151Z,0.00
2019-02-17T19:43:26.170Z,0.00
2019-02-17T19:44:26.175Z,0.00
2019-02-17T19:45:26.165Z,0.00
2019-02-17T19:46:26.170Z,0.00
2019-02-17T19:47:26.192Z,0.00
2019-02-17T19:48:26.199Z,0.00
2019-02-17T19:49:26.202Z,0.00
2019-02-17T19:50:26.213Z,0.00
2019-02-17T19:51:26.217Z,0.00
2019-02-17T19:52:26.229Z,0.00
2019-02-17T19:53:26.223Z,0.00
2019-02-17T19:54:26.232Z,0.00
2019-02-17T19:55:26.258Z,0.00
2019-02-17T19:56:26.250Z,0.00
2019-02-17T19:57:26.265Z,0.00
2019-02-17T19:58:26.270Z,0.00
2019-02-17T19:59:26.275Z,0.00
2019-02-17T20:00:26.291Z,4.00
2019-02-17T20:01:26.285Z,0.00
2019-02-17T20:02:26.309Z,0.00
2019-02-17T20:03:26.306Z,0.00
2019-02-17T20:04:26.326Z,0.00
2019-02-17T20:05:26.322Z,0.00
2019-02-17T20:06:26.329Z,0.00
2019-02-17T20:07:26.344Z,0.00
2019-02-17T20:08:26.346Z,0.00
2019-02-17T20:09:26.346Z,0.00
2019-02-17T20:10:26.427Z,0.00
2019-02-17T20:11:26.365Z,0.00
2019-02-17T20:12:26.374Z,0.00
2019-02-17T20:13:26.386Z,0.00
2019-02-17T20:14:26.398Z,0.00
2019-02-17T20:15:26.400Z,0.00
2019-02-17T20:16:26.416Z,0.00
2019-02-17T20:17:26.412Z,0.00
2019-02-17T20:18:26.426Z,0.00
2019-02-17T20:19:26.438Z,0.00
2019-02-17T20:20:26.440Z,4.00
2019-02-17T20:21:26.459Z,0.00
2019-02-17T20:22:26.452Z,0.00
2019-02-17T20:23:26.483Z,0.00
2019-02-17T20:24:26.465Z,0.00
2019-02-17T20:25:26.462Z,0.00
2019-02-17T20:26:26.480Z,0.00
2019-02-17T20:27:26.481Z,0.00
2019-02-17T20:28:40.654Z,0.00
2019-02-17T20:29:26.501Z,0.00
2019-02-17T20:30:26.509Z,0.00
2019-02-17T20:31:26.517Z,0.00
2019-02-17T20:32:26.540Z,0.00
2019-02-17T20:33:26.527Z,0.00
2019-02-17T20:34:26.548Z,0.00
2019-02-17T20:35:26.549Z,0.00
2019-02-17T20:36:26.555Z,0.00
2019-02-17T20:37:26.570Z,0.00
2019-02-17T20:38:26.580Z,0.00
2019-02-17T20:39:26.571Z,0.00
2019-02-17T20:40:26.586Z,0.00
2019-02-17T20:41:26.612Z,0.00
2019-02-17T20:42:26.615Z,0.00
2019-02-17T20:43:26.609Z,0.00
2019-02-17T20:44:26.609Z,0.00